Time;durP1;ratioP1;P1;durP2;ratioP2;P2;SDS_P1;SDS_P2;PMS_P1;PMS_P2;Temp;Humidity;BMP_temperature;BMP_pressure;BME280_temperature;BME280_humidity;BME280_pressure;Samples;Min_cycle;Max_cycle;Signal;HPM_P1;HPM_P2
2021/03/22 00:01:06;;;;;;;7.82;3.13;;;;;;;3.84;46.09;97128.78;10500970;28;20041;-53
2021/03/22 00:06:08;;;;;;;6.47;3.17;;;;;;;3.73;46.55;97129.03;10501135;28;20152;-57
2021/03/22 00:11:11;;;;;;;8.63;3.72;;;;;;;3.73;46.63;97123.03;10502394;28;20058;-52
2021/03/22 00:16:12;;;;;;;7.97;3.10;;;;;;;3.71;46.88;97127.56;10501277;28;20125;-55
2021/03/22 00:21:14;;;;;;;8.05;3.78;;;;;;;3.75;46.38;97126.28;10500323;28;20048;-55
2021/03/22 00:26:17;;;;;;;8.40;4.07;;;;;;;3.84;46.09;97127.97;10505525;28;20044;-54
2021/03/22 00:31:19;;;;;;;6.63;3.10;;;;;;;3.77;46.53;97129.53;10500401;28;20139;-54
2021/03/22 00:36:20;;;;;;;9.73;3.55;;;;;;;3.76;46.28;97126.13;10499884;28;20059;-56
2021/03/22 00:41:24;;;;;;;7.15;3.40;;;;;;;3.79;46.52;97133.63;10499739;28;20485;-52
2021/03/22 00:46:25;;;;;;;8.13;3.42;;;;;;;3.73;46.82;97131.63;10510793;28;20052;-54
2021/03/22 00:51:28;;;;;;;6.40;3.25;;;;;;;3.63;46.99;97136.91;10538769;28;20052;-53
2021/03/22 00:56:30;;;;;;;10.80;3.75;;;;;;;3.72;46.57;97129.16;10538596;28;20063;-59
2021/03/22 01:01:32;;;;;;;6.68;3.47;;;;;;;3.84;46.15;97127.97;10539014;28;20048;-53
2021/03/22 01:06:34;;;;;;;7.90;3.08;;;;;;;3.86;46.28;97126.84;10538363;28;20101;-55
2021/03/22 01:11:36;;;;;;;9.10;3.80;;;;;;;3.86;46.21;97120.84;10538307;28;20047;-53
2021/03/22 01:16:39;;;;;;;7.35;3.70;;;;;;;3.90;46.41;97116.97;10539430;28;20060;-53
2021/03/22 01:21:44;;;;;;;8.40;3.30;;;;;;;3.96;45.97;97118.16;10538351;28;20056;-54
2021/03/22 01:26:47;;;;;;;6.47;3.28;;;;;;;3.88;46.52;97131.91;10538369;28;20138;-54
2021/03/22 01:31:49;;;;;;;8.77;3.85;;;;;;;3.79;46.88;97132.81;10538677;28;20054;-56
2021/03/22 01:36:51;;;;;;;7.78;3.53;;;;;;;3.79;46.92;97140.63;10538202;28;20116;-56
2021/03/22 01:42:07;;;;;;;9.00;3.60;;;;;;;3.81;46.78;97143.84;10541526;28;20455;-54
2021/03/22 01:47:11;;;;;;;9.18;3.80;;;;;;;3.94;46.18;97133.88;10537377;28;20051;-53
2021/03/22 01:52:15;;;;;;;6.57;2.45;;;;;;;4.04;46.15;97134.63;10537602;28;20048;-52
2021/03/22 01:57:28;;;;;;;7.83;4.33;;;;;;;3.91;46.28;97148.03;10543099;28;20055;-53
2021/03/22 02:02:29;;;;;;;8.45;3.55;;;;;;;3.99;45.99;97143.84;10547934;28;20391;-53
2021/03/22 02:07:31;;;;;;;7.82;3.55;;;;;;;4.06;45.97;97150.84;10548707;28;20058;-53
2021/03/22 02:12:34;;;;;;;8.23;3.85;;;;;;;4.04;46.43;97152.81;10547001;28;20055;-54
2021/03/22 02:17:45;;;;;;;8.32;3.63;;;;;;;3.89;46.46;97156.94;10546394;28;20067;-53
2021/03/22 02:23:23;;;;;;;8.55;3.80;;;;;;;3.87;47.12;97156.25;10545923;28;20066;-54
2021/03/22 02:28:57;;;;;;;10.73;4.00;;;;;;;3.87;47.22;97148.44;10544946;28;20081;-53
2021/03/22 02:34:14;;;;;;;6.82;3.70;;;;;;;3.78;47.17;97162.34;10544392;28;20059;-53
2021/03/22 02:39:17;;;;;;;6.82;3.65;;;;;;;3.78;47.18;97167.53;10543571;28;20373;-54
2021/03/22 02:44:25;;;;;;;8.13;3.75;;;;;;;3.78;47.45;97164.94;10543390;28;20063;-53
2021/03/22 02:49:32;;;;;;;7.20;3.72;;;;;;;3.74;47.68;97168.81;10543248;28;20044;-54
2021/03/22 02:54:43;;;;;;;8.10;4.13;;;;;;;3.77;47.54;97153.75;10543354;28;20388;-53
2021/03/22 02:59:49;;;;;;;6.85;3.67;;;;;;;3.76;47.95;97167.72;10537916;28;20036;-52
2021/03/22 03:04:52;;;;;;;7.25;3.88;;;;;;;3.82;47.94;97166.31;10503131;28;20058;-56
2021/03/22 03:09:53;;;;;;;8.05;3.83;;;;;;;3.84;47.29;97174.75;10500804;28;20052;-55
2021/03/22 03:14:57;;;;;;;7.35;3.95;;;;;;;4.04;46.88;97168.41;10502909;28;20053;-56
2021/03/22 03:20:00;;;;;;;7.32;3.42;;;;;;;4.14;46.92;97166.53;10501423;28;20045;-54
2021/03/22 03:25:01;;;;;;;7.03;3.50;;;;;;;4.12;46.60;97160.66;10500591;28;20386;-53
2021/03/22 03:30:04;;;;;;;6.70;3.13;;;;;;;4.14;46.87;97161.31;10499739;28;20136;-52
2021/03/22 03:35:10;;;;;;;7.33;3.73;;;;;;;4.18;46.42;97166.22;10500510;28;20119;-54
2021/03/22 03:40:15;;;;;;;8.35;3.90;;;;;;;4.18;46.80;97163.63;10501860;28;20044;-59
2021/03/22 03:45:20;;;;;;;6.38;3.45;;;;;;;4.13;46.67;97164.91;10501359;28;20052;-60
2021/03/22 03:50:26;;;;;;;7.85;3.97;;;;;;;4.24;46.22;97170.81;10502697;28;20056;-63
2021/03/22 03:55:31;;;;;;;9.20;3.35;;;;;;;4.27;46.18;97175.69;10499567;28;20048;-53
2021/03/22 04:00:37;;;;;;;7.25;4.03;;;;;;;4.16;46.65;97174.19;10518333;28;20044;-52
2021/03/22 04:05:39;;;;;;;8.13;4.15;;;;;;;4.26;46.65;97176.69;10539338;28;20048;-54
2021/03/22 04:10:41;;;;;;;7.90;3.65;;;;;;;4.33;46.29;97186.31;10538286;28;20090;-53
2021/03/22 04:15:42;;;;;;;6.55;3.47;;;;;;;4.30;46.22;97188.41;10540981;28;20052;-52
2021/03/22 04:20:45;;;;;;;7.60;3.60;;;;;;;4.47;46.38;97197.13;10536694;28;20054;-53
2021/03/22 04:25:47;;;;;;;9.23;3.47;;;;;;;4.53;46.29;97189.53;10512723;28;20106;-52
2021/03/22 04:30:48;;;;;;;7.55;3.40;;;;;;;4.53;46.31;97188.72;10496416;28;20040;-53
2021/03/22 04:35:51;;;;;;;8.00;4.10;;;;;;;4.64;45.97;97192.84;10498747;28;20048;-55
2021/03/22 04:40:53;;;;;;;5.97;3.17;;;;;;;4.63;45.64;97202.44;10498130;28;20586;-55
2021/03/22 04:45:55;;;;;;;7.55;3.15;;;;;;;4.73;45.92;97197.91;10498052;28;20104;-56
2021/03/22 04:50:57;;;;;;;7.53;3.47;;;;;;;4.82;45.68;97201.38;10497896;28;20481;-55
2021/03/22 04:55:59;;;;;;;7.00;3.38;;;;;;;4.86;45.07;97205.28;10496911;28;20061;-54
2021/03/22 05:01:00;;;;;;;6.40;3.60;;;;;;;4.84;45.64;97205.47;10496821;28;20044;-53
2021/03/22 05:06:04;;;;;;;7.97;3.67;;;;;;;4.96;45.16;97207.81;10496612;28;20049;-55
2021/03/22 05:11:06;;;;;;;6.40;3.38;;;;;;;5.04;44.70;97203.41;10496695;28;20143;-54
2021/03/22 05:16:07;;;;;;;7.28;3.97;;;;;;;5.02;45.29;97212.38;10496895;28;20049;-54
2021/03/22 05:21:10;;;;;;;7.78;3.47;;;;;;;5.16;45.17;97216.16;10495362;28;20060;-53
2021/03/22 05:26:11;;;;;;;9.35;4.20;;;;;;;5.29;44.49;97219.13;10496237;28;20576;-55
2021/03/22 05:31:13;;;;;;;8.05;3.47;;;;;;;5.36;44.81;97220.16;10499564;28;20048;-53
2021/03/22 05:36:16;;;;;;;7.85;3.28;;;;;;;5.84;44.54;97217.78;10507010;28;20076;-61
2021/03/22 05:41:20;;;;;;;7.20;3.25;;;;;;;6.68;43.80;97209.59;10506270;28;20113;-55
2021/03/22 05:46:33;;;;;;;8.85;2.80;;;;;;;6.99;43.73;97203.63;10503620;28;20500;-55
2021/03/22 05:51:58;;;;;;;7.03;3.10;;;;;;;7.40;43.55;97206.06;10504089;28;20048;-53
2021/03/22 05:57:03;;;;;;;;;;;;;;;8.34;42.77;97208.47;10504305;28;20040;-53
2021/03/22 06:02:09;;;;;;;;;;;;;;;8.88;42.14;97210.94;10504428;28;19935;-56
2021/03/22 06:07:17;;;;;;;6.38;3.00;;;;;;;9.58;41.01;97202.50;10505359;28;19924;-52
2021/03/22 06:12:37;;;;;;;6.63;3.05;;;;;;;10.69;39.72;97204.72;10508726;28;20083;-54
2021/03/22 06:17:44;;;;;;;5.85;2.72;;;;;;;11.86;38.14;97222.22;10508779;28;20069;-53
2021/03/22 06:22:47;;;;;;;6.00;2.78;;;;;;;11.88;37.37;97221.00;10505123;28;20067;-56
2021/03/22 06:27:52;;;;;;;6.27;3.30;;;;;;;11.32;37.10;97215.94;10501206;28;20056;-53
2021/03/22 06:32:57;;;;;;;4.43;2.20;;;;;;;10.71;37.40;97215.81;10505680;28;20052;-53
2021/03/22 06:38:00;;;;;;;6.55;2.63;;;;;;;10.92;37.57;97230.72;10504456;28;20040;-55
2021/03/22 06:43:06;;;;;;;5.38;2.65;;;;;;;11.61;36.57;97219.31;10500944;28;20118;-54
2021/03/22 06:48:29;;;;;;;4.60;2.35;;;;;;;11.73;35.60;97225.63;10501671;28;20105;-54
2021/03/22 06:53:35;;;;;;;6.53;3.00;;;;;;;11.38;35.91;97230.13;10501540;28;20134;-56
2021/03/22 06:58:37;;;;;;;5.40;2.70;;;;;;;11.03;35.71;97238.88;10502000;28;20432;-56
2021/03/22 07:03:38;;;;;;;6.57;2.92;;;;;;;10.30;36.12;97245.41;10500691;28;20150;-53
2021/03/22 07:08:41;;;;;;;4.78;2.17;;;;;;;9.73;36.16;97243.59;10501515;28;20048;-53
2021/03/22 07:13:57;;;;;;;7.27;2.97;;;;;;;9.16;36.92;97234.69;10500907;28;20059;-53
2021/03/22 07:19:15;;;;;;;6.85;2.95;;;;;;;8.87;37.18;97241.56;10500934;28;20055;-53
2021/03/22 07:24:28;;;;;;;5.38;2.67;;;;;;;9.92;36.48;97245.66;10500704;28;20389;-57
2021/03/22 07:29:46;;;;;;;5.22;2.17;;;;;;;10.52;34.97;97252.25;10500995;28;20083;-54
2021/03/22 07:35:00;;;;;;;9.27;2.63;;;;;;;10.43;34.88;97247.34;10500420;28;20050;-56
2021/03/22 07:40:10;;;;;;;5.00;2.20;;;;;;;10.76;34.98;97242.34;10505120;28;20042;-56
2021/03/22 07:45:36;;;;;;;5.15;2.45;;;;;;;10.21;35.13;97243.91;10500481;28;20048;-52
2021/03/22 07:50:44;;;;;;;3.88;1.80;;;;;;;9.65;35.11;97240.13;10506504;28;20059;-62
2021/03/22 07:55:51;;;;;;;4.88;2.10;;;;;;;9.63;35.68;97246.53;10500310;28;20067;-52
2021/03/22 08:01:02;;;;;;;4.45;1.90;;;;;;;10.33;34.90;97247.66;10500987;28;20036;-54
2021/03/22 08:06:18;;;;;;;5.85;2.70;;;;;;;10.73;34.26;97253.22;10499085;28;20438;-55
2021/03/22 08:11:28;;;;;;;4.50;2.08;;;;;;;10.66;34.03;97260.25;10498586;28;20052;-56
2021/03/22 08:16:54;;;;;;;5.97;1.85;;;;;;;10.38;34.20;97258.44;10502206;28;20049;-54
2021/03/22 08:22:03;;;;;;;4.32;2.40;;;;;;;10.04;34.28;97270.41;10473232;28;20359;-54
2021/03/22 08:27:13;;;;;;;4.25;2.03;;;;;;;9.98;34.42;97265.09;10499007;28;20420;-52
2021/03/22 08:32:33;;;;;;;5.00;2.20;;;;;;;9.86;34.44;97262.13;10500388;28;20048;-53
2021/03/22 08:37:41;;;;;;;6.47;2.45;;;;;;;9.99;34.38;97271.97;10499746;28;20078;-54
2021/03/22 08:42:47;;;;;;;6.43;2.13;;;;;;;10.32;33.82;97277.56;10500459;28;20036;-54
2021/03/22 08:47:55;;;;;;;6.32;1.90;;;;;;;10.38;33.43;97282.06;10498952;28;20417;-54
2021/03/22 08:52:59;;;;;;;6.78;1.95;;;;;;;10.21;33.68;97275.41;10498840;28;20127;-54
2021/03/22 08:58:05;;;;;;;3.72;1.60;;;;;;;9.63;33.75;97275.38;10498002;28;20060;-53
2021/03/22 09:03:35;;;;;;;5.95;1.95;;;;;;;9.51;34.19;97272.41;10498306;28;20041;-55
2021/03/22 09:08:39;;;;;;;6.70;2.25;;;;;;;9.62;33.65;97273.78;10451388;28;20121;-56
2021/03/22 09:13:53;;;;;;;5.30;1.73;;;;;;;9.57;33.89;97276.94;10498271;28;20082;-52
2021/03/22 09:19:27;;;;;;;4.50;1.70;;;;;;;9.29;34.04;97292.50;10498205;28;20488;-53
2021/03/22 09:24:49;;;;;;;4.85;2.13;;;;;;;9.12;34.28;97288.47;10497318;28;20499;-53
2021/03/22 09:29:53;;;;;;;5.20;1.95;;;;;;;9.22;34.44;97284.56;10496366;28;20052;-54
2021/03/22 09:34:57;;;;;;;5.40;1.90;;;;;;;9.01;34.63;97309.88;10497497;28;20049;-53
2021/03/22 09:39:59;;;;;;;5.60;2.10;;;;;;;7.96;36.84;97321.78;10496504;28;20388;-54
2021/03/22 09:45:19;;;;;;;5.97;2.30;;;;;;;7.41;38.87;97316.63;10496105;28;20143;-55
2021/03/22 09:50:24;;;;;;;4.95;2.10;;;;;;;8.10;38.97;97315.00;10497424;28;20074;-54
2021/03/22 09:55:44;;;;;;;6.28;2.45;;;;;;;9.13;38.40;97308.44;10497255;28;20040;-53
2021/03/22 10:00:55;;;;;;;6.28;2.17;;;;;;;9.23;37.95;97317.63;10485389;28;20060;-53
2021/03/22 10:05:59;;;;;;;5.05;1.83;;;;;;;8.46;38.81;97319.66;10496749;28;20511;-56
2021/03/22 10:11:06;;;;;;;5.65;1.60;;;;;;;8.02;38.87;97325.50;10496661;28;20497;-54
2021/03/22 10:16:14;;;;;;;3.70;1.10;;;;;;;7.75;39.64;97337.25;10498107;28;20138;-54
2021/03/22 10:21:21;;;;;;;2.28;0.77;;;;;;;7.78;39.88;97342.94;10503774;28;20064;-53
2021/03/22 10:26:29;;;;;;;3.90;1.13;;;;;;;8.20;39.68;97344.38;10503227;28;20059;-53
2021/03/22 10:31:33;;;;;;;3.50;1.15;;;;;;;8.60;39.46;97333.81;10503136;28;20424;-53
2021/03/22 10:36:37;;;;;;;6.40;1.40;;;;;;;9.04;39.14;97343.56;10502430;28;20051;-55
2021/03/22 10:41:41;;;;;;;6.28;1.48;;;;;;;9.20;39.31;97341.59;10503785;28;20429;-53
2021/03/22 10:46:44;;;;;;;;;;;;;;;9.74;38.94;97337.88;10507200;28;20048;-52
2021/03/22 10:51:47;;;;;;;6.95;2.20;;;;;;;10.28;38.05;97349.81;10511924;28;19928;-54
2021/03/22 10:56:54;;;;;;;8.52;2.80;;;;;;;9.84;38.22;97350.72;10503643;28;20048;-54
2021/03/22 11:02:01;;;;;;;7.72;2.95;;;;;;;9.61;39.09;97349.03;10501098;28;20041;-52
2021/03/22 11:07:11;;;;;;;5.35;2.78;;;;;;;10.30;39.14;97350.47;10502687;28;20081;-55
2021/03/22 11:12:13;;;;;;;6.90;2.80;;;;;;;11.01;37.82;97353.91;10503004;28;20055;-54
2021/03/22 11:17:19;;;;;;;6.10;2.55;;;;;;;11.27;36.76;97347.25;10501422;28;20048;-54
2021/03/22 11:22:39;;;;;;;6.57;2.67;;;;;;;10.99;37.24;97353.31;10499006;28;20481;-56
2021/03/22 11:27:56;;;;;;;6.88;2.30;;;;;;;11.07;36.86;97354.97;10500493;28;20198;-56
2021/03/22 11:32:59;;;;;;;6.72;2.50;;;;;;;11.36;36.55;97348.72;10500383;28;20473;-53
2021/03/22 11:38:03;;;;;;;6.65;2.47;;;;;;;11.76;36.13;97354.19;10501606;28;20045;-53
2021/03/22 11:43:24;;;;;;;4.38;2.20;;;;;;;11.87;35.27;97356.28;10498691;28;20048;-54
2021/03/22 11:48:37;;;;;;;6.40;2.72;;;;;;;11.30;35.69;97362.63;10498506;28;20545;-54
2021/03/22 11:54:06;;;;;;;12.18;3.65;;;;;;;10.92;36.06;97360.31;10499599;28;20044;-55
2021/03/22 11:59:19;;;;;;;4.93;1.70;;;;;;;10.53;35.71;97366.88;10461512;28;20052;-55
2021/03/22 12:04:23;;;;;;;3.25;1.17;;;;;;;9.94;36.83;97376.66;10501973;28;20059;-54
2021/03/22 12:09:26;;;;;;;2.78;1.08;;;;;;;9.69;37.31;97369.91;10498821;28;20052;-55
2021/03/22 12:14:28;;;;;;;3.70;1.30;;;;;;;9.37;38.26;97365.84;10498375;28;20110;-56
2021/03/22 12:19:35;;;;;;;4.97;1.40;;;;;;;9.09;38.66;97370.88;10498234;28;20094;-56
2021/03/22 12:24:37;;;;;;;3.70;1.35;;;;;;;9.27;38.32;97378.41;10498784;28;20144;-53
2021/03/22 12:29:39;;;;;;;5.88;1.60;;;;;;;9.74;37.14;97373.81;10498278;28;20048;-54
2021/03/22 12:34:41;;;;;;;3.60;1.45;;;;;;;10.00;36.78;97381.19;10497879;28;20135;-55
2021/03/22 12:39:43;;;;;;;4.03;1.08;;;;;;;10.19;36.10;97377.16;10508509;28;20049;-54
2021/03/22 12:44:45;;;;;;;3.00;1.10;;;;;;;10.23;35.62;97375.81;10509190;28;20048;-56
2021/03/22 12:49:48;;;;;;;3.92;1.30;;;;;;;10.15;35.23;97374.09;10501675;28;20401;-56
2021/03/22 12:54:50;;;;;;;5.20;2.17;;;;;;;10.07;35.15;97384.72;10501944;28;20385;-55
2021/03/22 12:59:56;;;;;;;3.58;1.40;;;;;;;9.98;35.00;97389.25;10504331;28;20456;-58
2021/03/22 13:04:58;;;;;;;3.50;1.13;;;;;;;9.87;34.98;97385.28;10496837;28;20150;-53
2021/03/22 13:10:00;;;;;;;3.90;1.40;;;;;;;9.83;35.11;97388.47;10497147;28;20120;-52
2021/03/22 13:15:02;;;;;;;5.25;1.48;;;;;;;9.93;34.79;97393.41;10496764;28;20455;-55
2021/03/22 13:20:06;;;;;;;5.72;1.50;;;;;;;9.91;34.75;97390.97;10496770;28;20501;-54
2021/03/22 13:25:09;;;;;;;5.25;1.88;;;;;;;9.99;34.45;97388.25;10496271;28;20362;-56
2021/03/22 13:30:17;;;;;;;6.93;1.50;;;;;;;9.62;34.68;97392.63;10498139;28;20350;-53
2021/03/22 13:35:23;;;;;;;4.45;1.73;;;;;;;9.37;34.75;97401.75;10498266;28;20048;-56
2021/03/22 13:40:25;;;;;;;4.68;1.80;;;;;;;9.13;35.14;97397.53;10497950;28;20066;-57
2021/03/22 13:45:29;;;;;;;4.38;1.60;;;;;;;8.92;35.16;97406.06;10497534;28;20052;-55
2021/03/22 13:50:32;;;;;;;4.82;1.70;;;;;;;8.80;34.94;97416.16;10496825;28;20063;-53
2021/03/22 13:55:33;;;;;;;3.38;1.70;;;;;;;8.51;35.63;97427.31;10504301;28;20056;-53
2021/03/22 14:00:35;;;;;;;4.10;1.50;;;;;;;8.27;35.47;97433.47;10509224;28;20053;-54
2021/03/22 14:05:37;;;;;;;4.65;1.35;;;;;;;8.02;36.05;97440.63;10505282;28;20059;-53
2021/03/22 14:10:58;;;;;;;4.65;1.33;;;;;;;7.72;36.57;97456.09;10504018;28;20365;-53
2021/03/22 14:16:00;;;;;;;4.10;1.23;;;;;;;7.47;36.95;97462.34;10502494;28;20056;-53
2021/03/22 14:21:04;;;;;;;3.15;1.20;;;;;;;7.34;37.67;97474.13;10502774;28;20044;-53
2021/03/22 14:26:05;;;;;;;5.40;1.73;;;;;;;7.08;37.94;97483.94;10503003;28;20660;-52
2021/03/22 14:31:07;;;;;;;3.72;1.33;;;;;;;6.73;38.96;97480.63;10502127;28;20435;-56
2021/03/22 14:36:10;;;;;;;4.40;1.38;;;;;;;6.56;39.67;97479.81;10504012;28;20040;-53
2021/03/22 14:41:12;;;;;;;6.10;1.42;;;;;;;6.50;40.10;97487.47;10503046;28;20102;-53
2021/03/22 14:46:14;;;;;;;3.70;1.30;;;;;;;6.43;40.59;97495.91;10502319;28;20060;-53
2021/03/22 14:51:17;;;;;;;3.20;1.10;;;;;;;5.99;41.42;97493.44;10502059;28;20464;-53
2021/03/22 14:56:18;;;;;;;2.60;0.90;;;;;;;5.63;42.44;97495.31;10503626;28;20127;-53
2021/03/22 15:01:21;;;;;;;3.33;0.88;;;;;;;5.76;42.64;97492.34;10502252;28;20048;-55
2021/03/22 15:06:23;;;;;;;3.92;1.55;;;;;;;5.94;42.47;97500.94;10505394;28;20056;-53
2021/03/22 15:11:25;;;;;;;3.55;1.40;;;;;;;5.89;42.97;97508.38;10504877;28;20040;-56
2021/03/22 15:16:26;;;;;;;5.30;1.60;;;;;;;5.97;42.95;97511.06;10501818;28;20044;-53
2021/03/22 15:21:29;;;;;;;4.45;1.83;;;;;;;6.02;42.99;97512.38;10505688;28;20513;-54
2021/03/22 15:26:31;;;;;;;7.90;2.23;;;;;;;5.86;43.27;97513.06;10504076;28;20451;-54
2021/03/22 15:31:33;;;;;;;10.82;2.80;;;;;;;5.72;43.51;97507.44;10539943;28;20076;-52
2021/03/22 15:36:36;;;;;;;7.85;3.25;;;;;;;5.67;44.18;97514.91;10499255;28;20139;-52
2021/03/22 15:41:38;;;;;;;5.63;1.92;;;;;;;5.66;44.30;97521.09;10499790;28;20041;-53
2021/03/22 15:46:39;;;;;;;6.13;1.88;;;;;;;5.68;44.29;97526.16;10498614;28;20359;-53
2021/03/22 15:51:42;;;;;;;8.85;1.92;;;;;;;5.67;44.40;97524.53;10503106;28;20527;-53
2021/03/22 15:56:44;;;;;;;6.45;1.80;;;;;;;5.61;44.26;97530.34;10499192;28;20044;-56
2021/03/22 16:01:45;;;;;;;6.30;2.00;;;;;;;5.53;44.48;97536.31;10499692;28;20048;-53
2021/03/22 16:06:48;;;;;;;6.00;2.17;;;;;;;5.41;44.30;97540.94;10499504;28;20062;-55
2021/03/22 16:11:50;;;;;;;9.97;2.57;;;;;;;5.28;44.23;97546.53;10498542;28;20057;-55
2021/03/22 16:16:52;;;;;;;7.97;2.00;;;;;;;5.26;44.74;97548.47;10497307;28;20286;-56
2021/03/22 16:21:54;;;;;;;8.68;3.25;;;;;;;5.22;44.96;97551.53;10497749;28;20052;-52
2021/03/22 16:26:56;;;;;;;7.90;2.78;;;;;;;5.23;44.90;97555.78;10499633;28;20040;-55
2021/03/22 16:31:58;;;;;;;5.68;2.17;;;;;;;5.16;45.28;97552.94;10508285;28;20504;-53
2021/03/22 16:37:01;;;;;;;7.32;2.42;;;;;;;5.13;45.10;97568.06;10498046;28;20066;-53
2021/03/22 16:42:04;;;;;;;7.07;2.50;;;;;;;5.07;45.26;97570.28;10498331;28;20047;-55
2021/03/22 16:47:07;;;;;;;7.90;2.58;;;;;;;5.10;45.40;97573.56;10499595;28;20818;-53
2021/03/22 16:52:09;;;;;;;7.90;2.45;;;;;;;5.12;45.50;97577.66;10499298;28;20562;-52
2021/03/22 16:57:11;;;;;;;6.57;2.75;;;;;;;5.18;45.23;97582.28;10497706;28;20057;-55
2021/03/22 17:02:12;;;;;;;7.55;3.15;;;;;;;5.09;45.60;97593.59;10497116;28;20063;-53
2021/03/22 17:07:15;;;;;;;6.85;3.42;;;;;;;5.09;46.06;97590.97;10497000;28;20052;-55
2021/03/22 17:12:17;;;;;;;8.77;3.47;;;;;;;5.12;45.93;97592.47;10500738;28;20055;-56
2021/03/22 17:17:22;;;;;;;11.07;3.72;;;;;;;5.11;45.94;97596.03;10499425;28;20080;-55
2021/03/22 17:22:25;;;;;;;11.38;3.38;;;;;;;5.09;46.13;97609.22;10496049;28;20210;-55
2021/03/22 17:27:26;;;;;;;7.88;2.47;;;;;;;5.11;46.10;97617.72;10500277;28;20472;-56
2021/03/22 17:32:28;;;;;;;8.52;2.83;;;;;;;5.06;45.76;97618.13;10505241;28;20049;-55
2021/03/22 17:37:30;;;;;;;7.50;2.85;;;;;;;5.03;45.82;97620.22;10503645;28;20091;-52
2021/03/22 17:42:32;;;;;;;8.63;3.22;;;;;;;4.93;46.14;97622.88;10505939;28;20059;-53
2021/03/22 17:47:34;;;;;;;6.13;3.30;;;;;;;4.93;46.42;97629.88;10507192;28;20053;-54
2021/03/22 17:52:37;;;;;;;6.25;2.78;;;;;;;4.80;46.22;97640.59;10504635;28;20488;-54
2021/03/22 17:57:38;;;;;;;6.95;3.05;;;;;;;4.74;46.37;97641.19;10504374;28;20097;-53
2021/03/22 18:02:40;;;;;;;9.70;3.55;;;;;;;4.80;46.65;97638.84;10503422;28;20045;-52
2021/03/22 18:07:43;;;;;;;6.97;3.30;;;;;;;4.79;46.75;97645.00;10505214;28;20048;-58
2021/03/22 18:12:44;;;;;;;8.80;3.25;;;;;;;4.78;46.44;97652.97;10503801;28;20060;-55
2021/03/22 18:17:46;;;;;;;8.30;3.53;;;;;;;4.80;46.43;97653.63;10502940;28;20052;-52
2021/03/22 18:22:49;;;;;;;11.13;3.83;;;;;;;4.91;45.98;97653.44;10501931;28;20060;-54
2021/03/22 18:27:51;;;;;;;7.97;3.87;;;;;;;4.92;46.04;97660.28;10501487;28;20547;-53
2021/03/22 18:32:53;;;;;;;8.82;3.85;;;;;;;4.84;46.23;97670.63;10500353;28;20055;-52
2021/03/22 18:37:56;;;;;;;8.57;3.80;;;;;;;4.78;46.47;97673.78;10499576;28;20466;-52
2021/03/22 18:42:58;;;;;;;8.33;3.87;;;;;;;4.76;46.80;97675.72;10499687;28;20470;-52
2021/03/22 18:48:00;;;;;;;8.15;3.45;;;;;;;4.75;46.77;97681.88;10500173;28;20213;-54
2021/03/22 18:53:03;;;;;;;7.05;2.85;;;;;;;4.72;46.49;97682.19;10504006;28;20059;-59
2021/03/22 18:58:06;;;;;;;5.30;2.53;;;;;;;4.81;46.76;97679.53;10502765;28;20197;-52
2021/03/22 19:03:08;;;;;;;4.60;1.98;;;;;;;4.84;46.46;97683.63;10499094;28;20067;-52
2021/03/22 19:08:11;;;;;;;7.18;2.50;;;;;;;4.70;46.32;97697.09;10508688;28;20047;-54
2021/03/22 19:13:14;;;;;;;8.70;2.53;;;;;;;4.58;46.32;97697.28;10500603;28;20052;-52
2021/03/22 19:18:17;;;;;;;7.18;2.58;;;;;;;4.61;45.85;97706.59;10514787;28;20392;-53
2021/03/22 19:23:22;;;;;;;6.35;1.85;;;;;;;4.66;45.41;97708.78;10516165;28;873741;-52
2021/03/22 19:28:24;;;;;;;4.78;1.55;;;;;;;4.51;44.76;97706.63;10542673;28;20054;-52
2021/03/22 19:33:26;;;;;;;3.10;1.10;;;;;;;4.36;44.42;97713.22;10540918;28;20334;-52
2021/03/22 19:38:29;;;;;;;3.30;1.20;;;;;;;4.27;43.55;97719.25;10542065;28;20048;-53
2021/03/22 19:43:31;;;;;;;4.23;1.13;;;;;;;4.21;43.89;97718.03;10543398;28;20070;-52
2021/03/22 19:48:32;;;;;;;3.97;1.02;;;;;;;4.18;43.59;97726.13;10541067;28;20304;-51
2021/03/22 19:53:37;;;;;;;4.55;1.10;;;;;;;4.24;43.37;97733.38;10542216;28;20469;-56
2021/03/22 19:58:39;;;;;;;3.65;1.30;;;;;;;4.29;42.66;97730.34;10542556;28;20093;-53
2021/03/22 20:03:40;;;;;;;4.03;1.20;;;;;;;4.22;42.83;97732.69;10541420;28;20051;-54
2021/03/22 20:08:43;;;;;;;3.22;1.27;;;;;;;4.18;42.31;97733.09;10545964;28;20040;-54
2021/03/22 20:13:49;;;;;;;3.15;1.20;;;;;;;4.12;41.79;97735.28;10544593;28;20060;-60
2021/03/22 20:18:51;;;;;;;5.57;2.20;;;;;;;4.15;41.93;97742.81;10542147;28;20507;-53
2021/03/22 20:23:55;;;;;;;3.10;0.82;;;;;;;4.22;42.38;97750.06;10547524;28;20484;-56
2021/03/22 20:28:59;;;;;;;3.55;1.20;;;;;;;3.81;43.37;97752.00;10543746;28;20044;-59
2021/03/22 20:34:00;;;;;;;1.88;0.80;;;;;;;3.57;43.48;97761.00;10527709;28;20051;-53
2021/03/22 20:39:05;;;;;;;2.38;0.90;;;;;;;3.62;43.67;97753.59;10547498;28;20048;-54
2021/03/22 20:44:07;;;;;;;4.28;1.20;;;;;;;3.74;43.12;97746.53;10542855;28;20047;-58
2021/03/22 20:49:11;;;;;;;3.75;1.27;;;;;;;3.91;42.44;97747.63;10539273;28;20052;-51
2021/03/22 20:54:13;;;;;;;;;;;;;;;4.11;42.02;97746.66;10541216;28;20040;-55
2021/03/22 20:59:15;;;;;;;2.78;0.90;;;;;;;4.08;42.22;97749.53;10539339;28;19955;-53
2021/03/22 21:04:16;;;;;;;4.90;1.60;;;;;;;4.02;42.03;97752.69;10538453;28;20059;-55
2021/03/22 21:09:19;;;;;;;3.47;1.00;;;;;;;4.03;42.20;97756.91;10540307;28;20043;-55
2021/03/22 21:14:21;;;;;;;4.10;1.20;;;;;;;3.91;41.75;97758.03;10539252;28;20073;-52
2021/03/22 21:19:22;;;;;;;2.70;1.00;;;;;;;3.87;40.80;97761.84;10538965;28;20043;-52
2021/03/22 21:24:25;;;;;;;5.78;1.10;;;;;;;3.83;40.85;97771.69;10538912;28;20409;-52
2021/03/22 21:29:26;;;;;;;2.63;0.90;;;;;;;3.83;40.78;97770.88;10538978;28;20134;-52
2021/03/22 21:34:28;;;;;;;8.27;2.63;;;;;;;3.87;40.88;97772.25;10537897;28;20051;-55
2021/03/22 21:39:31;;;;;;;5.60;1.73;;;;;;;3.94;40.42;97773.31;10537606;28;20390;-54
2021/03/22 21:44:32;;;;;;;3.67;1.10;;;;;;;4.01;40.26;97771.03;10538358;28;20044;-60
2021/03/22 21:49:34;;;;;;;3.63;1.20;;;;;;;3.95;40.66;97775.00;10538423;28;20051;-53
2021/03/22 21:54:36;;;;;;;3.65;1.20;;;;;;;3.95;40.81;97780.19;10538503;28;20101;-57
2021/03/22 21:59:38;;;;;;;4.20;1.70;;;;;;;3.96;40.61;97787.03;10538529;28;20044;-52
2021/03/22 22:04:40;;;;;;;3.65;1.40;;;;;;;3.83;40.84;97789.06;10537732;28;20048;-52
2021/03/22 22:09:42;;;;;;;6.72;1.83;;;;;;;3.76;40.73;97796.59;10538147;28;20056;-52
2021/03/22 22:14:45;;;;;;;2.50;1.00;;;;;;;3.55;41.19;97799.28;10542186;28;20496;-53
2021/03/22 22:19:47;;;;;;;4.90;1.42;;;;;;;3.42;40.81;97798.72;10545277;28;20052;-53
2021/03/22 22:24:49;;;;;;;4.15;1.42;;;;;;;3.32;41.28;97813.41;10545422;28;20083;-56
2021/03/22 22:29:51;;;;;;;6.40;2.03;;;;;;;3.25;40.79;97817.50;10545908;28;20407;-56
2021/03/22 22:34:52;;;;;;;4.13;1.63;;;;;;;3.10;41.24;97817.03;10547707;28;20199;-55
2021/03/22 22:39:55;;;;;;;4.13;1.58;;;;;;;3.01;41.44;97831.59;10547371;28;20063;-53
2021/03/22 22:44:57;;;;;;;3.97;1.50;;;;;;;2.94;40.92;97831.28;10544203;28;20048;-55
2021/03/22 22:49:58;;;;;;;5.13;1.83;;;;;;;2.81;41.52;97830.69;10540873;28;20052;-58
2021/03/22 22:55:01;;;;;;;6.13;2.05;;;;;;;2.72;41.20;97844.41;10505361;28;20044;-51
2021/03/22 23:00:07;;;;;;;5.47;1.70;;;;;;;2.66;41.54;97844.91;10517789;28;20392;-55
2021/03/22 23:05:11;;;;;;;5.45;1.88;;;;;;;2.55;41.09;97845.78;10541052;28;20417;-56
2021/03/22 23:10:14;;;;;;;6.60;1.92;;;;;;;2.46;41.29;97857.75;10541110;28;20136;-52
2021/03/22 23:15:28;;;;;;;6.10;2.70;;;;;;;2.39;41.79;97856.59;10539217;28;20465;-53
2021/03/22 23:20:30;;;;;;;4.68;2.20;;;;;;;2.30;41.81;97855.56;10542747;28;20051;-52
2021/03/22 23:25:32;;;;;;;4.93;2.20;;;;;;;2.23;41.46;97867.38;10541325;28;20090;-58
2021/03/22 23:30:36;;;;;;;6.63;1.98;;;;;;;2.14;41.74;97865.53;10539013;28;20052;-52
2021/03/22 23:35:38;;;;;;;6.55;2.05;;;;;;;2.07;42.16;97879.94;10521772;28;20423;-53
2021/03/22 23:40:40;;;;;;;5.32;2.20;;;;;;;1.98;41.74;97883.25;10496288;28;20393;-53
2021/03/22 23:45:42;;;;;;;4.63;2.17;;;;;;;1.90;42.68;97883.03;10496988;28;20772;-52
2021/03/22 23:50:46;;;;;;;6.32;2.10;;;;;;;1.87;42.97;97893.63;10538084;28;20055;-52
2021/03/22 23:55:49;;;;;;;5.57;2.40;;;;;;;1.88;42.75;97897.84;10539034;28;20060;-54
